sensor_id;sensor_type;location;lat;lon;timestamp;P1;durP1;ratioP1;P2;durP2;ratioP2
7398;SDS011;3740;50.700;7.184;2023-10-13T00:01:54;10.50;;;7.88;;
7398;SDS011;3740;50.700;7.184;2023-10-13T00:04:21;9.90;;;8.10;;
7398;SDS011;3740;50.700;7.184;2023-10-13T00:06:47;8.77;;;7.68;;
7398;SDS011;3740;50.700;7.184;2023-10-13T00:09:13;9.57;;;8.23;;
7398;SDS011;3740;50.700;7.184;2023-10-13T00:11:42;9.25;;;8.43;;
7398;SDS011;3740;50.700;7.184;2023-10-13T00:14:12;9.75;;;7.68;;
7398;SDS011;3740;50.700;7.184;2023-10-13T00:16:44;10.60;;;8.40;;
7398;SDS011;3740;50.700;7.184;2023-10-13T00:19:36;8.90;;;8.00;;
7398;SDS011;3740;50.700;7.184;2023-10-13T00:22:06;8.88;;;7.60;;
7398;SDS011;3740;50.700;7.184;2023-10-13T00:24:37;9.55;;;8.52;;
7398;SDS011;3740;50.700;7.184;2023-10-13T00:27:15;9.73;;;8.30;;
7398;SDS011;3740;50.700;7.184;2023-10-13T00:29:55;9.50;;;8.48;;
7398;SDS011;3740;50.700;7.184;2023-10-13T00:32:44;9.32;;;8.43;;
7398;SDS011;3740;50.700;7.184;2023-10-13T00:35:12;11.95;;;8.70;;
7398;SDS011;3740;50.700;7.184;2023-10-13T00:37:49;10.68;;;8.38;;
7398;SDS011;3740;50.700;7.184;2023-10-13T00:40:18;12.70;;;8.27;;
7398;SDS011;3740;50.700;7.184;2023-10-13T00:42:57;8.50;;;7.50;;
7398;SDS011;3740;50.700;7.184;2023-10-13T00:45:45;9.23;;;8.32;;
7398;SDS011;3740;50.700;7.184;2023-10-13T00:48:21;11.75;;;8.63;;
7398;SDS011;3740;50.700;7.184;2023-10-13T00:50:53;11.35;;;9.15;;
7398;SDS011;3740;50.700;7.184;2023-10-13T00:53:21;9.70;;;8.48;;
7398;SDS011;3740;50.700;7.184;2023-10-13T00:55:50;12.00;;;8.88;;
7398;SDS011;3740;50.700;7.184;2023-10-13T00:58:16;10.38;;;8.32;;
7398;SDS011;3740;50.700;7.184;2023-10-13T01:00:47;9.70;;;8.60;;
7398;SDS011;3740;50.700;7.184;2023-10-13T01:03:21;8.63;;;7.72;;
7398;SDS011;3740;50.700;7.184;2023-10-13T01:05:52;10.27;;;8.48;;
7398;SDS011;3740;50.700;7.184;2023-10-13T01:08:30;9.35;;;8.40;;
7398;SDS011;3740;50.700;7.184;2023-10-13T01:10:59;10.27;;;9.20;;
7398;SDS011;3740;50.700;7.184;2023-10-13T01:13:25;12.07;;;9.75;;
7398;SDS011;3740;50.700;7.184;2023-10-13T01:15:52;10.10;;;9.07;;
7398;SDS011;3740;50.700;7.184;2023-10-13T01:18:17;9.93;;;9.02;;
7398;SDS011;3740;50.700;7.184;2023-10-13T01:20:43;10.65;;;8.95;;
7398;SDS011;3740;50.700;7.184;2023-10-13T01:23:11;13.15;;;10.10;;
7398;SDS011;3740;50.700;7.184;2023-10-13T01:25:43;11.25;;;9.05;;
7398;SDS011;3740;50.700;7.184;2023-10-13T01:28:10;13.93;;;9.98;;
7398;SDS011;3740;50.700;7.184;2023-10-13T01:30:40;10.63;;;9.52;;
7398;SDS011;3740;50.700;7.184;2023-10-13T01:33:07;12.75;;;10.30;;
7398;SDS011;3740;50.700;7.184;2023-10-13T01:35:34;11.13;;;9.82;;
7398;SDS011;3740;50.700;7.184;2023-10-13T01:38:07;11.48;;;9.50;;
7398;SDS011;3740;50.700;7.184;2023-10-13T01:40:34;11.77;;;9.43;;
7398;SDS011;3740;50.700;7.184;2023-10-13T01:43:00;10.63;;;9.50;;
7398;SDS011;3740;50.700;7.184;2023-10-13T01:45:26;11.27;;;9.15;;
7398;SDS011;3740;50.700;7.184;2023-10-13T01:47:55;10.20;;;9.20;;
7398;SDS011;3740;50.700;7.184;2023-10-13T01:50:21;10.07;;;9.18;;
7398;SDS011;3740;50.700;7.184;2023-10-13T01:52:53;11.75;;;10.05;;
7398;SDS011;3740;50.700;7.184;2023-10-13T01:55:37;11.00;;;9.40;;
7398;SDS011;3740;50.700;7.184;2023-10-13T01:58:08;15.35;;;9.85;;
7398;SDS011;3740;50.700;7.184;2023-10-13T02:00:43;10.38;;;9.10;;
7398;SDS011;3740;50.700;7.184;2023-10-13T02:03:12;13.32;;;9.40;;
7398;SDS011;3740;50.700;7.184;2023-10-13T02:05:42;10.68;;;9.57;;
7398;SDS011;3740;50.700;7.184;2023-10-13T02:08:14;14.93;;;10.55;;
7398;SDS011;3740;50.700;7.184;2023-10-13T02:10:53;12.52;;;10.25;;
7398;SDS011;3740;50.700;7.184;2023-10-13T02:13:20;11.85;;;10.10;;
7398;SDS011;3740;50.700;7.184;2023-10-13T02:15:47;12.68;;;10.50;;
7398;SDS011;3740;50.700;7.184;2023-10-13T02:18:18;11.55;;;9.85;;
7398;SDS011;3740;50.700;7.184;2023-10-13T02:20:54;11.82;;;10.00;;
7398;SDS011;3740;50.700;7.184;2023-10-13T02:23:22;11.95;;;10.13;;
7398;SDS011;3740;50.700;7.184;2023-10-13T02:25:49;17.10;;;11.07;;
7398;SDS011;3740;50.700;7.184;2023-10-13T02:28:25;11.80;;;10.55;;
7398;SDS011;3740;50.700;7.184;2023-10-13T02:30:53;12.57;;;10.30;;
7398;SDS011;3740;50.700;7.184;2023-10-13T02:33:19;11.15;;;10.05;;
7398;SDS011;3740;50.700;7.184;2023-10-13T02:35:49;11.98;;;9.70;;
7398;SDS011;3740;50.700;7.184;2023-10-13T02:38:18;15.77;;;10.95;;
7398;SDS011;3740;50.700;7.184;2023-10-13T02:40:52;11.27;;;9.90;;
7398;SDS011;3740;50.700;7.184;2023-10-13T02:43:19;10.40;;;9.35;;
7398;SDS011;3740;50.700;7.184;2023-10-13T02:45:54;12.02;;;9.77;;
7398;SDS011;3740;50.700;7.184;2023-10-13T02:48:28;13.00;;;10.05;;
7398;SDS011;3740;50.700;7.184;2023-10-13T02:50:57;10.87;;;9.67;;
7398;SDS011;3740;50.700;7.184;2023-10-13T02:53:27;12.25;;;9.77;;
7398;SDS011;3740;50.700;7.184;2023-10-13T02:55:54;10.93;;;9.65;;
7398;SDS011;3740;50.700;7.184;2023-10-13T02:58:29;13.18;;;9.57;;
7398;SDS011;3740;50.700;7.184;2023-10-13T03:01:04;13.30;;;9.70;;
7398;SDS011;3740;50.700;7.184;2023-10-13T03:03:42;12.05;;;10.00;;
7398;SDS011;3740;50.700;7.184;2023-10-13T03:06:08;10.90;;;9.50;;
7398;SDS011;3740;50.700;7.184;2023-10-13T03:08:37;10.30;;;9.18;;
7398;SDS011;3740;50.700;7.184;2023-10-13T03:11:03;12.55;;;9.85;;
7398;SDS011;3740;50.700;7.184;2023-10-13T03:13:30;13.32;;;10.55;;
7398;SDS011;3740;50.700;7.184;2023-10-13T03:15:58;12.38;;;9.75;;
7398;SDS011;3740;50.700;7.184;2023-10-13T03:18:24;13.65;;;9.48;;
7398;SDS011;3740;50.700;7.184;2023-10-13T03:20:50;11.32;;;10.23;;
7398;SDS011;3740;50.700;7.184;2023-10-13T03:23:21;14.00;;;9.98;;
7398;SDS011;3740;50.700;7.184;2023-10-13T03:25:49;13.25;;;9.85;;
7398;SDS011;3740;50.700;7.184;2023-10-13T03:28:15;12.23;;;10.15;;
7398;SDS011;3740;50.700;7.184;2023-10-13T03:30:43;10.73;;;9.43;;
7398;SDS011;3740;50.700;7.184;2023-10-13T03:33:09;11.98;;;9.77;;
7398;SDS011;3740;50.700;7.184;2023-10-13T03:35:36;11.95;;;10.07;;
7398;SDS011;3740;50.700;7.184;2023-10-13T03:38:03;11.13;;;9.35;;
7398;SDS011;3740;50.700;7.184;2023-10-13T03:40:36;10.90;;;9.77;;
7398;SDS011;3740;50.700;7.184;2023-10-13T03:43:02;11.02;;;9.45;;
7398;SDS011;3740;50.700;7.184;2023-10-13T03:45:35;12.88;;;9.52;;
7398;SDS011;3740;50.700;7.184;2023-10-13T03:48:04;11.18;;;9.15;;
7398;SDS011;3740;50.700;7.184;2023-10-13T03:50:37;9.07;;;8.02;;
7398;SDS011;3740;50.700;7.184;2023-10-13T03:53:27;11.25;;;8.07;;
7398;SDS011;3740;50.700;7.184;2023-10-13T03:55:58;8.35;;;7.30;;
7398;SDS011;3740;50.700;7.184;2023-10-13T03:58:51;8.55;;;7.47;;
7398;SDS011;3740;50.700;7.184;2023-10-13T04:01:19;10.82;;;8.77;;
7398;SDS011;3740;50.700;7.184;2023-10-13T04:03:54;9.70;;;7.90;;
7398;SDS011;3740;50.700;7.184;2023-10-13T04:06:27;12.25;;;9.52;;
7398;SDS011;3740;50.700;7.184;2023-10-13T04:09:14;13.10;;;10.70;;
7398;SDS011;3740;50.700;7.184;2023-10-13T04:12:09;11.25;;;9.77;;
7398;SDS011;3740;50.700;7.184;2023-10-13T04:14:44;10.63;;;9.52;;
7398;SDS011;3740;50.700;7.184;2023-10-13T04:17:28;12.18;;;10.43;;
7398;SDS011;3740;50.700;7.184;2023-10-13T04:19:56;12.32;;;11.07;;
7398;SDS011;3740;50.700;7.184;2023-10-13T04:25:16;13.75;;;11.13;;
7398;SDS011;3740;50.700;7.184;2023-10-13T04:28:17;12.95;;;11.45;;
7398;SDS011;3740;50.700;7.184;2023-10-13T04:31:06;14.07;;;11.18;;
7398;SDS011;3740;50.700;7.184;2023-10-13T04:33:45;15.63;;;11.25;;
7398;SDS011;3740;50.700;7.184;2023-10-13T04:36:21;16.38;;;11.65;;
7398;SDS011;3740;50.700;7.184;2023-10-13T04:38:56;11.73;;;10.52;;
7398;SDS011;3740;50.700;7.184;2023-10-13T04:41:30;12.77;;;10.48;;
7398;SDS011;3740;50.700;7.184;2023-10-13T04:44:03;12.90;;;10.40;;
7398;SDS011;3740;50.700;7.184;2023-10-13T04:46:49;15.15;;;10.93;;
7398;SDS011;3740;50.700;7.184;2023-10-13T04:49:15;11.98;;;10.77;;
7398;SDS011;3740;50.700;7.184;2023-10-13T04:51:59;13.60;;;10.50;;
7398;SDS011;3740;50.700;7.184;2023-10-13T04:54:41;11.57;;;10.30;;
7398;SDS011;3740;50.700;7.184;2023-10-13T04:57:18;12.88;;;10.68;;
7398;SDS011;3740;50.700;7.184;2023-10-13T05:00:06;14.65;;;11.23;;
7398;SDS011;3740;50.700;7.184;2023-10-13T05:02:35;11.40;;;9.93;;
7398;SDS011;3740;50.700;7.184;2023-10-13T05:05:07;11.07;;;9.10;;
7398;SDS011;3740;50.700;7.184;2023-10-13T05:07:46;12.60;;;9.38;;
7398;SDS011;3740;50.700;7.184;2023-10-13T05:10:31;12.68;;;9.90;;
7398;SDS011;3740;50.700;7.184;2023-10-13T05:13:15;12.77;;;9.85;;
7398;SDS011;3740;50.700;7.184;2023-10-13T05:16:00;13.38;;;10.05;;
7398;SDS011;3740;50.700;7.184;2023-10-13T05:18:44;12.68;;;10.13;;
7398;SDS011;3740;50.700;7.184;2023-10-13T05:21:29;16.05;;;10.48;;
7398;SDS011;3740;50.700;7.184;2023-10-13T05:24:13;10.50;;;9.40;;
7398;SDS011;3740;50.700;7.184;2023-10-13T05:26:57;11.45;;;9.48;;
7398;SDS011;3740;50.700;7.184;2023-10-13T05:29:42;11.75;;;8.50;;
7398;SDS011;3740;50.700;7.184;2023-10-13T05:32:28;9.70;;;8.13;;
7398;SDS011;3740;50.700;7.184;2023-10-13T05:35:13;11.00;;;8.15;;
7398;SDS011;3740;50.700;7.184;2023-10-13T05:37:58;13.02;;;8.73;;
7398;SDS011;3740;50.700;7.184;2023-10-13T05:41:01;9.90;;;7.60;;
7398;SDS011;3740;50.700;7.184;2023-10-13T05:43:47;12.15;;;8.45;;
7398;SDS011;3740;50.700;7.184;2023-10-13T05:46:31;8.95;;;7.90;;
7398;SDS011;3740;50.700;7.184;2023-10-13T05:49:03;10.63;;;7.85;;
7398;SDS011;3740;50.700;7.184;2023-10-13T05:51:42;11.48;;;7.75;;
7398;SDS011;3740;50.700;7.184;2023-10-13T05:54:17;11.20;;;7.30;;
7398;SDS011;3740;50.700;7.184;2023-10-13T05:56:43;8.73;;;7.30;;
7398;SDS011;3740;50.700;7.184;2023-10-13T05:59:30;11.95;;;7.75;;
7398;SDS011;3740;50.700;7.184;2023-10-13T06:02:15;11.38;;;7.90;;
7398;SDS011;3740;50.700;7.184;2023-10-13T06:05:01;12.15;;;7.32;;
7398;SDS011;3740;50.700;7.184;2023-10-13T06:07:46;12.40;;;7.90;;
7398;SDS011;3740;50.700;7.184;2023-10-13T06:10:30;12.77;;;7.40;;
7398;SDS011;3740;50.700;7.184;2023-10-13T06:13:15;11.88;;;7.97;;
7398;SDS011;3740;50.700;7.184;2023-10-13T06:15:59;10.88;;;8.15;;
7398;SDS011;3740;50.700;7.184;2023-10-13T06:18:43;13.50;;;8.05;;
7398;SDS011;3740;50.700;7.184;2023-10-13T06:21:28;13.15;;;8.00;;
7398;SDS011;3740;50.700;7.184;2023-10-13T06:24:12;13.52;;;8.18;;
7398;SDS011;3740;50.700;7.184;2023-10-13T06:26:57;11.98;;;7.35;;
7398;SDS011;3740;50.700;7.184;2023-10-13T06:29:41;11.48;;;7.85;;
7398;SDS011;3740;50.700;7.184;2023-10-13T06:32:07;11.07;;;7.68;;
7398;SDS011;3740;50.700;7.184;2023-10-13T06:34:36;12.10;;;7.18;;
7398;SDS011;3740;50.700;7.184;2023-10-13T06:37:13;12.02;;;8.00;;
7398;SDS011;3740;50.700;7.184;2023-10-13T06:39:49;13.07;;;8.25;;
7398;SDS011;3740;50.700;7.184;2023-10-13T06:42:15;11.63;;;7.82;;
7398;SDS011;3740;50.700;7.184;2023-10-13T06:44:43;11.40;;;7.82;;
7398;SDS011;3740;50.700;7.184;2023-10-13T06:47:12;11.98;;;7.53;;
7398;SDS011;3740;50.700;7.184;2023-10-13T06:49:41;13.52;;;7.82;;
7398;SDS011;3740;50.700;7.184;2023-10-13T06:52:11;8.20;;;6.88;;
7398;SDS011;3740;50.700;7.184;2023-10-13T06:54:37;14.98;;;7.38;;
7398;SDS011;3740;50.700;7.184;2023-10-13T06:57:04;14.25;;;7.50;;
7398;SDS011;3740;50.700;7.184;2023-10-13T06:59:32;10.13;;;7.22;;
7398;SDS011;3740;50.700;7.184;2023-10-13T07:02:01;14.30;;;7.40;;
7398;SDS011;3740;50.700;7.184;2023-10-13T07:04:31;9.18;;;7.00;;
7398;SDS011;3740;50.700;7.184;2023-10-13T07:06:58;12.15;;;8.50;;
7398;SDS011;3740;50.700;7.184;2023-10-13T07:09:25;10.63;;;7.80;;
7398;SDS011;3740;50.700;7.184;2023-10-13T07:12:01;13.30;;;7.95;;
7398;SDS011;3740;50.700;7.184;2023-10-13T07:14:31;12.65;;;8.15;;
7398;SDS011;3740;50.700;7.184;2023-10-13T07:17:05;15.50;;;8.68;;
7398;SDS011;3740;50.700;7.184;2023-10-13T07:19:33;14.57;;;8.48;;
7398;SDS011;3740;50.700;7.184;2023-10-13T07:21:59;14.93;;;7.97;;
7398;SDS011;3740;50.700;7.184;2023-10-13T07:24:49;11.77;;;6.93;;
7398;SDS011;3740;50.700;7.184;2023-10-13T07:29:56;10.00;;;6.90;;
7398;SDS011;3740;50.700;7.184;2023-10-13T07:32:38;11.40;;;7.28;;
7398;SDS011;3740;50.700;7.184;2023-10-13T07:35:14;13.77;;;7.20;;
7398;SDS011;3740;50.700;7.184;2023-10-13T07:37:43;14.57;;;7.35;;
7398;SDS011;3740;50.700;7.184;2023-10-13T07:40:10;11.50;;;7.30;;
7398;SDS011;3740;50.700;7.184;2023-10-13T07:42:51;12.57;;;6.90;;
7398;SDS011;3740;50.700;7.184;2023-10-13T07:45:28;13.18;;;6.90;;
7398;SDS011;3740;50.700;7.184;2023-10-13T07:50:37;12.05;;;7.00;;
7398;SDS011;3740;50.700;7.184;2023-10-13T07:53:03;14.18;;;7.53;;
7398;SDS011;3740;50.700;7.184;2023-10-13T07:55:45;13.52;;;8.13;;
7398;SDS011;3740;50.700;7.184;2023-10-13T07:58:23;14.23;;;8.15;;
7398;SDS011;3740;50.700;7.184;2023-10-13T08:00:52;14.38;;;8.02;;
7398;SDS011;3740;50.700;7.184;2023-10-13T08:03:32;13.60;;;8.20;;
7398;SDS011;3740;50.700;7.184;2023-10-13T08:06:11;15.90;;;7.32;;
7398;SDS011;3740;50.700;7.184;2023-10-13T08:08:39;12.43;;;6.60;;
7398;SDS011;3740;50.700;7.184;2023-10-13T08:11:05;14.13;;;6.85;;
7398;SDS011;3740;50.700;7.184;2023-10-13T08:13:46;12.75;;;6.75;;
7398;SDS011;3740;50.700;7.184;2023-10-13T08:16:14;15.02;;;6.95;;
7398;SDS011;3740;50.700;7.184;2023-10-13T08:18:50;9.75;;;6.57;;
7398;SDS011;3740;50.700;7.184;2023-10-13T08:21:16;11.68;;;6.20;;
7398;SDS011;3740;50.700;7.184;2023-10-13T08:23:43;11.60;;;6.43;;
7398;SDS011;3740;50.700;7.184;2023-10-13T08:26:24;9.90;;;7.30;;
7398;SDS011;3740;50.700;7.184;2023-10-13T08:29:01;12.30;;;6.88;;
7398;SDS011;3740;50.700;7.184;2023-10-13T08:31:50;12.35;;;7.47;;
7398;SDS011;3740;50.700;7.184;2023-10-13T08:34:32;12.27;;;7.60;;
7398;SDS011;3740;50.700;7.184;2023-10-13T08:37:08;11.70;;;6.72;;
7398;SDS011;3740;50.700;7.184;2023-10-13T08:39:46;11.43;;;6.80;;
7398;SDS011;3740;50.700;7.184;2023-10-13T08:42:31;11.07;;;7.25;;
7398;SDS011;3740;50.700;7.184;2023-10-13T08:45:07;12.38;;;7.75;;
7398;SDS011;3740;50.700;7.184;2023-10-13T08:47:46;10.80;;;7.80;;
7398;SDS011;3740;50.700;7.184;2023-10-13T08:50:54;16.23;;;8.82;;
7398;SDS011;3740;50.700;7.184;2023-10-13T08:53:27;11.45;;;7.88;;
7398;SDS011;3740;50.700;7.184;2023-10-13T08:58:26;10.82;;;6.93;;
7398;SDS011;3740;50.700;7.184;2023-10-13T09:01:12;13.57;;;7.68;;
7398;SDS011;3740;50.700;7.184;2023-10-13T09:03:39;13.27;;;7.38;;
7398;SDS011;3740;50.700;7.184;2023-10-13T09:06:08;12.25;;;8.00;;
7398;SDS011;3740;50.700;7.184;2023-10-13T09:08:40;12.48;;;8.02;;
7398;SDS011;3740;50.700;7.184;2023-10-13T09:11:24;13.57;;;8.38;;
7398;SDS011;3740;50.700;7.184;2023-10-13T09:13:52;12.45;;;8.05;;
7398;SDS011;3740;50.700;7.184;2023-10-13T09:16:18;10.43;;;7.30;;
7398;SDS011;3740;50.700;7.184;2023-10-13T09:19:02;11.38;;;7.88;;
7398;SDS011;3740;50.700;7.184;2023-10-13T09:21:40;11.30;;;7.20;;
7398;SDS011;3740;50.700;7.184;2023-10-13T09:24:10;11.40;;;7.35;;
7398;SDS011;3740;50.700;7.184;2023-10-13T09:26:54;15.55;;;7.18;;
7398;SDS011;3740;50.700;7.184;2023-10-13T09:29:21;10.57;;;6.97;;
7398;SDS011;3740;50.700;7.184;2023-10-13T09:31:48;10.18;;;6.95;;
7398;SDS011;3740;50.700;7.184;2023-10-13T09:34:27;9.95;;;7.30;;
7398;SDS011;3740;50.700;7.184;2023-10-13T09:36:58;9.88;;;7.50;;
7398;SDS011;3740;50.700;7.184;2023-10-13T09:39:25;10.35;;;6.85;;
7398;SDS011;3740;50.700;7.184;2023-10-13T09:42:09;11.95;;;7.20;;
7398;SDS011;3740;50.700;7.184;2023-10-13T09:44:37;11.38;;;7.32;;
7398;SDS011;3740;50.700;7.184;2023-10-13T09:47:05;10.65;;;7.00;;
7398;SDS011;3740;50.700;7.184;2023-10-13T09:49:43;10.50;;;7.30;;
7398;SDS011;3740;50.700;7.184;2023-10-13T09:52:15;9.35;;;7.10;;
7398;SDS011;3740;50.700;7.184;2023-10-13T09:54:47;11.73;;;6.95;;
7398;SDS011;3740;50.700;7.184;2023-10-13T09:57:24;10.30;;;6.97;;
7398;SDS011;3740;50.700;7.184;2023-10-13T10:00:08;13.48;;;7.55;;
7398;SDS011;3740;50.700;7.184;2023-10-13T10:02:57;10.77;;;7.13;;
7398;SDS011;3740;50.700;7.184;2023-10-13T10:05:29;9.93;;;6.72;;
7398;SDS011;3740;50.700;7.184;2023-10-13T10:08:00;8.43;;;6.75;;
7398;SDS011;3740;50.700;7.184;2023-10-13T10:13:39;10.88;;;7.00;;
7398;SDS011;3740;50.700;7.184;2023-10-13T10:16:37;9.45;;;6.78;;
7398;SDS011;3740;50.700;7.184;2023-10-13T10:19:14;9.70;;;7.13;;
7398;SDS011;3740;50.700;7.184;2023-10-13T10:21:40;8.50;;;7.03;;
7398;SDS011;3740;50.700;7.184;2023-10-13T10:24:21;11.80;;;6.97;;
7398;SDS011;3740;50.700;7.184;2023-10-13T10:26:58;9.70;;;6.70;;
7398;SDS011;3740;50.700;7.184;2023-10-13T10:29:24;10.60;;;7.13;;
7398;SDS011;3740;50.700;7.184;2023-10-13T10:31:49;8.90;;;7.05;;
7398;SDS011;3740;50.700;7.184;2023-10-13T10:34:16;9.63;;;6.50;;
7398;SDS011;3740;50.700;7.184;2023-10-13T10:36:47;8.27;;;7.00;;
7398;SDS011;3740;50.700;7.184;2023-10-13T10:39:18;8.07;;;6.60;;
7398;SDS011;3740;50.700;7.184;2023-10-13T10:41:44;8.20;;;6.57;;
7398;SDS011;3740;50.700;7.184;2023-10-13T10:44:13;9.10;;;6.97;;
7398;SDS011;3740;50.700;7.184;2023-10-13T10:47:13;9.13;;;6.90;;
7398;SDS011;3740;50.700;7.184;2023-10-13T10:50:02;10.07;;;7.22;;
7398;SDS011;3740;50.700;7.184;2023-10-13T10:52:44;9.68;;;6.60;;
7398;SDS011;3740;50.700;7.184;2023-10-13T10:55:11;9.13;;;6.72;;
7398;SDS011;3740;50.700;7.184;2023-10-13T10:57:39;8.52;;;6.68;;
7398;SDS011;3740;50.700;7.184;2023-10-13T11:00:17;9.50;;;6.63;;
7398;SDS011;3740;50.700;7.184;2023-10-13T11:03:05;9.25;;;6.60;;
7398;SDS011;3740;50.700;7.184;2023-10-13T11:05:30;8.48;;;6.88;;
7398;SDS011;3740;50.700;7.184;2023-10-13T11:08:07;9.25;;;6.78;;
7398;SDS011;3740;50.700;7.184;2023-10-13T11:10:50;8.88;;;6.65;;
7398;SDS011;3740;50.700;7.184;2023-10-13T11:13:15;9.70;;;6.72;;
7398;SDS011;3740;50.700;7.184;2023-10-13T11:15:47;10.15;;;6.93;;
7398;SDS011;3740;50.700;7.184;2023-10-13T11:18:13;9.00;;;6.40;;
7398;SDS011;3740;50.700;7.184;2023-10-13T11:20:48;11.50;;;6.65;;
7398;SDS011;3740;50.700;7.184;2023-10-13T11:23:20;10.73;;;6.40;;
7398;SDS011;3740;50.700;7.184;2023-10-13T11:25:57;13.20;;;6.53;;
7398;SDS011;3740;50.700;7.184;2023-10-13T11:28:24;10.80;;;7.20;;
7398;SDS011;3740;50.700;7.184;2023-10-13T11:30:53;9.65;;;6.25;;
7398;SDS011;3740;50.700;7.184;2023-10-13T11:33:23;9.52;;;6.30;;
7398;SDS011;3740;50.700;7.184;2023-10-13T11:35:51;10.52;;;7.07;;
7398;SDS011;3740;50.700;7.184;2023-10-13T11:41:14;10.07;;;6.82;;
7398;SDS011;3740;50.700;7.184;2023-10-13T11:43:47;8.80;;;6.00;;
7398;SDS011;3740;50.700;7.184;2023-10-13T11:46:18;10.88;;;6.40;;
7398;SDS011;3740;50.700;7.184;2023-10-13T11:49:11;9.45;;;6.80;;
7398;SDS011;3740;50.700;7.184;2023-10-13T11:51:40;11.00;;;6.40;;
7398;SDS011;3740;50.700;7.184;2023-10-13T11:54:09;12.05;;;6.93;;
7398;SDS011;3740;50.700;7.184;2023-10-13T11:56:39;9.73;;;6.80;;
7398;SDS011;3740;50.700;7.184;2023-10-13T11:59:05;10.82;;;6.63;;
7398;SDS011;3740;50.700;7.184;2023-10-13T12:01:31;10.20;;;6.68;;
7398;SDS011;3740;50.700;7.184;2023-10-13T12:04:15;9.45;;;6.90;;
7398;SDS011;3740;50.700;7.184;2023-10-13T12:07:00;11.52;;;6.57;;
7398;SDS011;3740;50.700;7.184;2023-10-13T12:09:38;8.60;;;6.10;;
7398;SDS011;3740;50.700;7.184;2023-10-13T12:14:48;12.20;;;6.50;;
7398;SDS011;3740;50.700;7.184;2023-10-13T12:17:29;8.52;;;6.32;;
7398;SDS011;3740;50.700;7.184;2023-10-13T12:20:04;12.00;;;6.30;;
7398;SDS011;3740;50.700;7.184;2023-10-13T12:22:34;9.52;;;6.32;;
7398;SDS011;3740;50.700;7.184;2023-10-13T12:25:04;9.85;;;6.80;;
7398;SDS011;3740;50.700;7.184;2023-10-13T12:27:43;7.80;;;5.95;;
7398;SDS011;3740;50.700;7.184;2023-10-13T12:30:14;13.50;;;6.63;;
7398;SDS011;3740;50.700;7.184;2023-10-13T12:32:47;9.43;;;6.70;;
7398;SDS011;3740;50.700;7.184;2023-10-13T12:35:31;11.15;;;6.13;;
7398;SDS011;3740;50.700;7.184;2023-10-13T12:38:01;11.10;;;6.57;;
7398;SDS011;3740;50.700;7.184;2023-10-13T12:40:30;11.10;;;6.45;;
7398;SDS011;3740;50.700;7.184;2023-10-13T12:43:14;7.82;;;5.85;;
7398;SDS011;3740;50.700;7.184;2023-10-13T12:45:58;11.40;;;7.05;;
7398;SDS011;3740;50.700;7.184;2023-10-13T12:48:42;12.98;;;6.13;;
7398;SDS011;3740;50.700;7.184;2023-10-13T12:51:25;10.77;;;6.35;;
7398;SDS011;3740;50.700;7.184;2023-10-13T12:53:57;9.80;;;7.75;;
7398;SDS011;3740;50.700;7.184;2023-10-13T12:56:29;10.02;;;6.22;;
7398;SDS011;3740;50.700;7.184;2023-10-13T12:58:55;8.82;;;5.95;;
7398;SDS011;3740;50.700;7.184;2023-10-13T13:01:22;10.23;;;6.03;;
7398;SDS011;3740;50.700;7.184;2023-10-13T13:03:50;13.05;;;6.88;;
7398;SDS011;3740;50.700;7.184;2023-10-13T13:06:21;9.10;;;6.35;;
7398;SDS011;3740;50.700;7.184;2023-10-13T13:08:54;10.82;;;6.45;;
7398;SDS011;3740;50.700;7.184;2023-10-13T13:11:24;11.25;;;6.10;;
7398;SDS011;3740;50.700;7.184;2023-10-13T13:13:50;8.18;;;6.05;;
7398;SDS011;3740;50.700;7.184;2023-10-13T13:16:16;9.73;;;6.10;;
7398;SDS011;3740;50.700;7.184;2023-10-13T13:18:44;9.05;;;6.28;;
7398;SDS011;3740;50.700;7.184;2023-10-13T13:21:10;9.63;;;5.85;;
7398;SDS011;3740;50.700;7.184;2023-10-13T13:23:45;11.93;;;6.25;;
7398;SDS011;3740;50.700;7.184;2023-10-13T13:26:11;10.73;;;6.53;;
7398;SDS011;3740;50.700;7.184;2023-10-13T13:28:46;8.75;;;6.00;;
7398;SDS011;3740;50.700;7.184;2023-10-13T13:31:18;9.02;;;6.03;;
7398;SDS011;3740;50.700;7.184;2023-10-13T13:33:50;8.70;;;6.22;;
7398;SDS011;3740;50.700;7.184;2023-10-13T13:36:15;9.77;;;6.65;;
7398;SDS011;3740;50.700;7.184;2023-10-13T13:38:41;8.13;;;5.93;;
7398;SDS011;3740;50.700;7.184;2023-10-13T13:41:14;9.73;;;6.18;;
7398;SDS011;3740;50.700;7.184;2023-10-13T13:43:50;8.80;;;6.13;;
7398;SDS011;3740;50.700;7.184;2023-10-13T13:46:20;9.30;;;5.90;;
7398;SDS011;3740;50.700;7.184;2023-10-13T13:48:50;12.15;;;5.95;;
7398;SDS011;3740;50.700;7.184;2023-10-13T13:51:22;9.75;;;6.10;;
7398;SDS011;3740;50.700;7.184;2023-10-13T13:53:52;9.85;;;6.40;;
7398;SDS011;3740;50.700;7.184;2023-10-13T13:56:21;9.70;;;6.28;;
7398;SDS011;3740;50.700;7.184;2023-10-13T13:58:51;12.57;;;6.05;;
7398;SDS011;3740;50.700;7.184;2023-10-13T14:01:17;12.35;;;6.10;;
7398;SDS011;3740;50.700;7.184;2023-10-13T14:03:45;11.95;;;5.57;;
7398;SDS011;3740;50.700;7.184;2023-10-13T14:06:12;9.25;;;6.30;;
7398;SDS011;3740;50.700;7.184;2023-10-13T14:08:43;11.98;;;6.20;;
7398;SDS011;3740;50.700;7.184;2023-10-13T14:11:14;9.73;;;6.22;;
7398;SDS011;3740;50.700;7.184;2023-10-13T14:13:59;9.70;;;6.50;;
7398;SDS011;3740;50.700;7.184;2023-10-13T14:16:29;8.73;;;6.18;;
7398;SDS011;3740;50.700;7.184;2023-10-13T14:18:58;14.65;;;6.07;;
7398;SDS011;3740;50.700;7.184;2023-10-13T14:21:26;6.88;;;5.60;;
7398;SDS011;3740;50.700;7.184;2023-10-13T14:23:53;11.13;;;6.43;;
7398;SDS011;3740;50.700;7.184;2023-10-13T14:26:18;10.25;;;6.68;;
7398;SDS011;3740;50.700;7.184;2023-10-13T14:28:45;12.10;;;6.05;;
7398;SDS011;3740;50.700;7.184;2023-10-13T14:31:29;11.68;;;6.35;;
7398;SDS011;3740;50.700;7.184;2023-10-13T14:33:55;10.93;;;6.25;;
7398;SDS011;3740;50.700;7.184;2023-10-13T14:36:24;11.18;;;5.93;;
7398;SDS011;3740;50.700;7.184;2023-10-13T14:38:53;9.48;;;6.22;;
7398;SDS011;3740;50.700;7.184;2023-10-13T14:41:20;10.23;;;5.68;;
7398;SDS011;3740;50.700;7.184;2023-10-13T14:43:46;11.32;;;6.53;;
7398;SDS011;3740;50.700;7.184;2023-10-13T14:46:20;12.45;;;6.22;;
7398;SDS011;3740;50.700;7.184;2023-10-13T14:48:52;9.20;;;5.85;;
7398;SDS011;3740;50.700;7.184;2023-10-13T14:51:17;9.32;;;6.03;;
7398;SDS011;3740;50.700;7.184;2023-10-13T14:53:44;11.82;;;6.45;;
7398;SDS011;3740;50.700;7.184;2023-10-13T14:56:13;7.53;;;5.78;;
7398;SDS011;3740;50.700;7.184;2023-10-13T14:58:39;8.85;;;5.85;;
7398;SDS011;3740;50.700;7.184;2023-10-13T15:01:12;12.60;;;6.70;;
7398;SDS011;3740;50.700;7.184;2023-10-13T15:03:41;10.38;;;5.88;;
7398;SDS011;3740;50.700;7.184;2023-10-13T15:06:17;9.20;;;6.43;;
7398;SDS011;3740;50.700;7.184;2023-10-13T15:08:44;10.65;;;6.40;;
7398;SDS011;3740;50.700;7.184;2023-10-13T15:11:11;7.68;;;6.25;;
7398;SDS011;3740;50.700;7.184;2023-10-13T15:13:38;9.15;;;6.13;;
7398;SDS011;3740;50.700;7.184;2023-10-13T15:16:14;8.98;;;6.30;;
7398;SDS011;3740;50.700;7.184;2023-10-13T15:18:42;8.82;;;6.10;;
7398;SDS011;3740;50.700;7.184;2023-10-13T15:21:11;9.90;;;5.88;;
7398;SDS011;3740;50.700;7.184;2023-10-13T15:23:44;7.70;;;5.60;;
7398;SDS011;3740;50.700;7.184;2023-10-13T15:26:10;9.60;;;5.82;;
7398;SDS011;3740;50.700;7.184;2023-10-13T15:28:38;10.68;;;6.38;;
7398;SDS011;3740;50.700;7.184;2023-10-13T15:31:13;6.85;;;5.15;;
7398;SDS011;3740;50.700;7.184;2023-10-13T15:33:51;8.57;;;6.00;;
7398;SDS011;3740;50.700;7.184;2023-10-13T15:36:19;8.70;;;5.70;;
7398;SDS011;3740;50.700;7.184;2023-10-13T15:38:48;6.63;;;5.68;;
7398;SDS011;3740;50.700;7.184;2023-10-13T15:41:22;7.70;;;5.85;;
7398;SDS011;3740;50.700;7.184;2023-10-13T15:43:53;9.98;;;5.43;;
7398;SDS011;3740;50.700;7.184;2023-10-13T15:46:20;8.00;;;5.32;;
7398;SDS011;3740;50.700;7.184;2023-10-13T15:48:50;10.40;;;8.52;;
7398;SDS011;3740;50.700;7.184;2023-10-13T15:51:17;8.27;;;6.70;;
7398;SDS011;3740;50.700;7.184;2023-10-13T15:53:43;6.63;;;5.93;;
7398;SDS011;3740;50.700;7.184;2023-10-13T15:56:12;7.22;;;5.55;;
7398;SDS011;3740;50.700;7.184;2023-10-13T15:58:39;9.32;;;5.70;;
7398;SDS011;3740;50.700;7.184;2023-10-13T16:01:06;8.65;;;6.03;;
7398;SDS011;3740;50.700;7.184;2023-10-13T16:03:34;6.35;;;5.70;;